sensor_id;sensor_type;location;lat;lon;timestamp;pressure;altitude;pressure_sealevel;temperature;humidity
64078;BME280;51039;49.696;10.808;2023-03-23T00:00:54;97733.63;;;10.32;84.14
64078;BME280;51039;49.696;10.808;2023-03-23T00:03:20;97730.97;;;10.32;84.90
64078;BME280;51039;49.696;10.808;2023-03-23T00:05:46;97736.25;;;10.32;85.03
64078;BME280;51039;49.696;10.808;2023-03-23T00:08:16;97744.84;;;10.28;85.47
64078;BME280;51039;49.696;10.808;2023-03-23T00:10:42;97738.72;;;10.27;85.61
64078;BME280;51039;49.696;10.808;2023-03-23T00:13:07;97733.03;;;10.23;85.76
64078;BME280;51039;49.696;10.808;2023-03-23T00:15:32;97729.66;;;10.16;86.38
64078;BME280;51039;49.696;10.808;2023-03-23T00:18:01;97732.06;;;10.18;86.48
64078;BME280;51039;49.696;10.808;2023-03-23T00:20:30;97719.88;;;10.17;86.43
64078;BME280;51039;49.696;10.808;2023-03-23T00:23:02;97730.47;;;10.10;86.52
64078;BME280;51039;49.696;10.808;2023-03-23T00:25:29;97733.59;;;10.00;86.81
64078;BME280;51039;49.696;10.808;2023-03-23T00:27:54;97730.59;;;9.97;87.20
64078;BME280;51039;49.696;10.808;2023-03-23T00:30:19;97722.09;;;9.88;87.82
64078;BME280;51039;49.696;10.808;2023-03-23T00:32:45;97721.50;;;9.86;88.17
64078;BME280;51039;49.696;10.808;2023-03-23T00:35:10;97723.56;;;9.84;88.76
64078;BME280;51039;49.696;10.808;2023-03-23T00:37:35;97717.03;;;9.87;89.21
64078;BME280;51039;49.696;10.808;2023-03-23T00:40:03;97713.38;;;9.88;89.73
64078;BME280;51039;49.696;10.808;2023-03-23T00:42:34;97716.44;;;9.85;89.92
64078;BME280;51039;49.696;10.808;2023-03-23T00:45:02;97724.41;;;9.78;91.93
64078;BME280;51039;49.696;10.808;2023-03-23T00:47:35;97721.59;;;9.73;91.96
64078;BME280;51039;49.696;10.808;2023-03-23T00:50:01;97726.31;;;9.64;92.59
64078;BME280;51039;49.696;10.808;2023-03-23T00:52:27;97722.25;;;9.68;91.80
64078;BME280;51039;49.696;10.808;2023-03-23T00:54:53;97723.91;;;9.62;92.02
64078;BME280;51039;49.696;10.808;2023-03-23T00:57:18;97719.81;;;9.67;92.05
64078;BME280;51039;49.696;10.808;2023-03-23T00:59:44;97726.69;;;9.68;91.34
64078;BME280;51039;49.696;10.808;2023-03-23T01:02:10;97726.09;;;9.66;91.34
64078;BME280;51039;49.696;10.808;2023-03-23T01:04:37;97717.75;;;9.69;90.85
64078;BME280;51039;49.696;10.808;2023-03-23T01:07:03;97717.09;;;9.73;90.52
64078;BME280;51039;49.696;10.808;2023-03-23T01:09:29;97715.06;;;9.75;90.32
64078;BME280;51039;49.696;10.808;2023-03-23T01:11:55;97710.38;;;9.77;89.79
64078;BME280;51039;49.696;10.808;2023-03-23T01:14:21;97716.03;;;9.81;89.44
64078;BME280;51039;49.696;10.808;2023-03-23T01:16:46;97704.84;;;9.86;88.73
64078;BME280;51039;49.696;10.808;2023-03-23T01:19:12;97696.25;;;9.90;87.98
64078;BME280;51039;49.696;10.808;2023-03-23T01:21:37;97693.31;;;9.98;87.07
64078;BME280;51039;49.696;10.808;2023-03-23T01:24:03;97690.84;;;10.03;86.68
64078;BME280;51039;49.696;10.808;2023-03-23T01:26:29;97684.56;;;10.05;86.34
64078;BME280;51039;49.696;10.808;2023-03-23T01:28:54;97680.28;;;10.03;85.10
64078;BME280;51039;49.696;10.808;2023-03-23T01:31:22;97679.47;;;10.03;84.56
64078;BME280;51039;49.696;10.808;2023-03-23T01:33:50;97677.56;;;10.10;84.14
64078;BME280;51039;49.696;10.808;2023-03-23T01:36:17;97673.25;;;10.16;83.75
64078;BME280;51039;49.696;10.808;2023-03-23T01:38:46;97668.50;;;10.25;82.84
64078;BME280;51039;49.696;10.808;2023-03-23T01:41:13;97674.56;;;10.32;82.98
64078;BME280;51039;49.696;10.808;2023-03-23T01:46:40;97677.22;;;10.32;85.14
64078;BME280;51039;49.696;10.808;2023-03-23T01:49:07;97667.03;;;10.29;85.86
64078;BME280;51039;49.696;10.808;2023-03-23T01:51:37;97667.91;;;10.22;86.18
64078;BME280;51039;49.696;10.808;2023-03-23T01:54:09;97670.75;;;10.21;86.55
64078;BME280;51039;49.696;10.808;2023-03-23T01:56:44;97667.53;;;10.19;87.31
64078;BME280;51039;49.696;10.808;2023-03-23T01:59:17;97669.97;;;10.20;86.99
64078;BME280;51039;49.696;10.808;2023-03-23T02:01:44;97670.56;;;10.22;87.14
64078;BME280;51039;49.696;10.808;2023-03-23T02:04:14;97667.91;;;10.22;86.88
64078;BME280;51039;49.696;10.808;2023-03-23T02:06:42;97659.16;;;10.22;86.97
64078;BME280;51039;49.696;10.808;2023-03-23T02:09:10;97653.13;;;10.15;86.37
64078;BME280;51039;49.696;10.808;2023-03-23T02:11:36;97650.00;;;10.18;86.52
64078;BME280;51039;49.696;10.808;2023-03-23T02:14:01;97654.88;;;10.21;85.72
64078;BME280;51039;49.696;10.808;2023-03-23T02:16:36;97655.69;;;10.21;86.02
64078;BME280;51039;49.696;10.808;2023-03-23T02:22:13;97652.91;;;10.16;85.99
64078;BME280;51039;49.696;10.808;2023-03-23T02:27:57;97640.09;;;10.13;85.59
64078;BME280;51039;49.696;10.808;2023-03-23T02:36:14;97632.31;;;10.18;84.28
64078;BME280;51039;49.696;10.808;2023-03-23T02:41:31;97624.09;;;10.27;83.26
64078;BME280;51039;49.696;10.808;2023-03-23T02:44:01;97621.84;;;10.30;83.06
64078;BME280;51039;49.696;10.808;2023-03-23T02:46:28;97630.31;;;10.39;80.66
64078;BME280;51039;49.696;10.808;2023-03-23T02:48:55;97627.97;;;10.49;79.03
64078;BME280;51039;49.696;10.808;2023-03-23T02:51:24;97627.69;;;10.57;77.70
64078;BME280;51039;49.696;10.808;2023-03-23T02:53:50;97629.44;;;10.64;77.75
64078;BME280;51039;49.696;10.808;2023-03-23T02:56:18;97627.38;;;10.66;77.00
64078;BME280;51039;49.696;10.808;2023-03-23T02:58:44;97625.31;;;10.68;76.65
64078;BME280;51039;49.696;10.808;2023-03-23T03:01:14;97628.31;;;10.71;75.91
64078;BME280;51039;49.696;10.808;2023-03-23T03:03:49;97629.72;;;10.74;74.91
64078;BME280;51039;49.696;10.808;2023-03-23T03:06:59;97625.16;;;10.81;74.63
64078;BME280;51039;49.696;10.808;2023-03-23T03:11:58;97624.50;;;10.86;74.69
64078;BME280;51039;49.696;10.808;2023-03-23T03:14:34;97622.66;;;10.86;75.79
64078;BME280;51039;49.696;10.808;2023-03-23T03:17:17;97620.06;;;10.79;76.54
64078;BME280;51039;49.696;10.808;2023-03-23T03:19:48;97603.47;;;10.72;77.81
64078;BME280;51039;49.696;10.808;2023-03-23T03:22:16;97595.16;;;10.69;77.69
64078;BME280;51039;49.696;10.808;2023-03-23T03:24:45;97588.81;;;10.70;77.16
64078;BME280;51039;49.696;10.808;2023-03-23T03:27:15;97585.72;;;10.73;76.60
64078;BME280;51039;49.696;10.808;2023-03-23T03:29:45;97588.16;;;10.74;77.72
64078;BME280;51039;49.696;10.808;2023-03-23T03:32:17;97595.75;;;10.71;79.00
64078;BME280;51039;49.696;10.808;2023-03-23T03:34:47;97595.81;;;10.64;78.79
64078;BME280;51039;49.696;10.808;2023-03-23T03:37:15;97601.09;;;10.64;77.04
64078;BME280;51039;49.696;10.808;2023-03-23T03:39:42;97595.81;;;10.64;77.64
64078;BME280;51039;49.696;10.808;2023-03-23T03:42:07;97594.78;;;10.65;76.57
64078;BME280;51039;49.696;10.808;2023-03-23T03:44:33;97594.00;;;10.65;77.93
64078;BME280;51039;49.696;10.808;2023-03-23T03:46:59;97599.72;;;10.61;77.10
64078;BME280;51039;49.696;10.808;2023-03-23T03:49:24;97604.00;;;10.63;77.05
64078;BME280;51039;49.696;10.808;2023-03-23T03:51:50;97600.50;;;10.62;77.54
64078;BME280;51039;49.696;10.808;2023-03-23T03:54:16;97603.53;;;10.66;76.67
64078;BME280;51039;49.696;10.808;2023-03-23T03:56:41;97588.38;;;10.73;75.75
64078;BME280;51039;49.696;10.808;2023-03-23T03:59:07;97593.00;;;10.77;75.23
64078;BME280;51039;49.696;10.808;2023-03-23T04:01:34;97595.22;;;10.80;75.52
64078;BME280;51039;49.696;10.808;2023-03-23T04:04:01;97586.22;;;10.81;74.80
64078;BME280;51039;49.696;10.808;2023-03-23T04:06:26;97601.91;;;10.83;74.48
64078;BME280;51039;49.696;10.808;2023-03-23T04:08:53;97604.56;;;10.83;75.18
64078;BME280;51039;49.696;10.808;2023-03-23T04:11:23;97600.88;;;10.84;75.74
64078;BME280;51039;49.696;10.808;2023-03-23T04:13:49;97593.38;;;10.81;74.58
64078;BME280;51039;49.696;10.808;2023-03-23T04:16:15;97606.19;;;10.84;75.12
64078;BME280;51039;49.696;10.808;2023-03-23T04:18:41;97601.69;;;10.85;75.43
64078;BME280;51039;49.696;10.808;2023-03-23T04:21:10;97594.78;;;10.84;75.35
64078;BME280;51039;49.696;10.808;2023-03-23T04:23:35;97593.53;;;10.86;75.67
64078;BME280;51039;49.696;10.808;2023-03-23T04:26:02;97592.72;;;10.86;75.32
64078;BME280;51039;49.696;10.808;2023-03-23T04:28:28;97592.03;;;10.90;75.04
64078;BME280;51039;49.696;10.808;2023-03-23T04:30:54;97597.91;;;10.92;74.26
64078;BME280;51039;49.696;10.808;2023-03-23T04:33:21;97596.66;;;10.95;74.37
64078;BME280;51039;49.696;10.808;2023-03-23T04:35:50;97599.88;;;10.97;74.00
64078;BME280;51039;49.696;10.808;2023-03-23T04:38:17;97597.03;;;10.98;73.59
64078;BME280;51039;49.696;10.808;2023-03-23T04:40:46;97601.31;;;10.99;73.24
64078;BME280;51039;49.696;10.808;2023-03-23T04:43:12;97611.09;;;10.99;74.04
64078;BME280;51039;49.696;10.808;2023-03-23T04:45:40;97600.72;;;10.97;73.66
64078;BME280;51039;49.696;10.808;2023-03-23T04:48:11;97600.72;;;10.97;73.77
64078;BME280;51039;49.696;10.808;2023-03-23T04:50:36;97597.38;;;11.02;73.36
64078;BME280;51039;49.696;10.808;2023-03-23T04:53:02;97593.72;;;11.03;73.52
64078;BME280;51039;49.696;10.808;2023-03-23T04:55:29;97593.25;;;11.06;73.79
64078;BME280;51039;49.696;10.808;2023-03-23T04:57:55;97592.88;;;11.03;73.92
64078;BME280;51039;49.696;10.808;2023-03-23T05:00:25;97590.81;;;11.05;73.62
64078;BME280;51039;49.696;10.808;2023-03-23T05:02:50;97590.47;;;11.01;73.66
64078;BME280;51039;49.696;10.808;2023-03-23T05:05:16;97579.50;;;10.97;73.82
64078;BME280;51039;49.696;10.808;2023-03-23T05:07:42;97592.09;;;11.02;73.63
64078;BME280;51039;49.696;10.808;2023-03-23T05:10:08;97590.47;;;11.01;73.91
64078;BME280;51039;49.696;10.808;2023-03-23T05:12:35;97594.16;;;11.00;74.40
64078;BME280;51039;49.696;10.808;2023-03-23T05:15:01;97588.78;;;11.07;73.47
64078;BME280;51039;49.696;10.808;2023-03-23T05:17:27;97585.66;;;11.10;72.97
64078;BME280;51039;49.696;10.808;2023-03-23T05:19:55;97588.88;;;11.12;73.76
64078;BME280;51039;49.696;10.808;2023-03-23T05:22:21;97583.00;;;11.10;72.87
64078;BME280;51039;49.696;10.808;2023-03-23T05:24:47;97582.00;;;11.11;73.00
64078;BME280;51039;49.696;10.808;2023-03-23T05:27:13;97586.16;;;11.18;72.64
64078;BME280;51039;49.696;10.808;2023-03-23T05:29:39;97580.19;;;11.23;71.69
64078;BME280;51039;49.696;10.808;2023-03-23T05:32:06;97582.75;;;11.30;70.73
64078;BME280;51039;49.696;10.808;2023-03-23T05:34:33;97578.13;;;11.37;70.89
64078;BME280;51039;49.696;10.808;2023-03-23T05:37:00;97588.53;;;11.38;70.83
64078;BME280;51039;49.696;10.808;2023-03-23T05:39:26;97591.88;;;11.46;70.19
64078;BME280;51039;49.696;10.808;2023-03-23T05:41:52;97593.84;;;11.50;70.16
64078;BME280;51039;49.696;10.808;2023-03-23T05:44:18;97592.34;;;11.54;69.91
64078;BME280;51039;49.696;10.808;2023-03-23T05:46:44;97591.78;;;11.64;68.96
64078;BME280;51039;49.696;10.808;2023-03-23T05:49:09;97587.78;;;11.73;68.67
64078;BME280;51039;49.696;10.808;2023-03-23T05:51:34;97592.63;;;11.76;68.73
64078;BME280;51039;49.696;10.808;2023-03-23T05:54:01;97592.28;;;11.85;68.19
64078;BME280;51039;49.696;10.808;2023-03-23T05:56:27;97589.78;;;11.90;68.04
64078;BME280;51039;49.696;10.808;2023-03-23T05:58:54;97594.41;;;11.94;68.63
64078;BME280;51039;49.696;10.808;2023-03-23T06:01:19;97593.72;;;11.99;68.23
64078;BME280;51039;49.696;10.808;2023-03-23T06:03:45;97599.94;;;12.05;68.34
64078;BME280;51039;49.696;10.808;2023-03-23T06:06:10;97595.31;;;12.12;68.33
64078;BME280;51039;49.696;10.808;2023-03-23T06:08:36;97614.03;;;12.17;69.48
64078;BME280;51039;49.696;10.808;2023-03-23T06:11:02;97599.69;;;12.18;69.28
64078;BME280;51039;49.696;10.808;2023-03-23T06:13:28;97596.25;;;12.17;68.96
64078;BME280;51039;49.696;10.808;2023-03-23T06:15:56;97593.38;;;12.19;68.54
64078;BME280;51039;49.696;10.808;2023-03-23T06:18:25;97611.50;;;12.22;68.45
64078;BME280;51039;49.696;10.808;2023-03-23T06:20:51;97604.56;;;12.21;69.04
64078;BME280;51039;49.696;10.808;2023-03-23T06:23:17;97607.91;;;12.28;69.39
64078;BME280;51039;49.696;10.808;2023-03-23T06:25:43;97612.16;;;12.29;68.41
64078;BME280;51039;49.696;10.808;2023-03-23T06:28:09;97614.59;;;12.31;68.05
64078;BME280;51039;49.696;10.808;2023-03-23T06:30:35;97613.44;;;12.27;67.91
64078;BME280;51039;49.696;10.808;2023-03-23T06:33:02;97629.03;;;12.23;68.67
64078;BME280;51039;49.696;10.808;2023-03-23T06:35:30;97635.38;;;12.34;69.00
64078;BME280;51039;49.696;10.808;2023-03-23T06:37:55;97628.00;;;12.36;68.92
64078;BME280;51039;49.696;10.808;2023-03-23T06:40:23;97637.78;;;12.35;69.58
64078;BME280;51039;49.696;10.808;2023-03-23T06:42:48;97627.75;;;12.26;71.02
64078;BME280;51039;49.696;10.808;2023-03-23T06:45:13;97625.31;;;12.12;73.16
64078;BME280;51039;49.696;10.808;2023-03-23T06:47:39;97627.41;;;12.10;72.30
64078;BME280;51039;49.696;10.808;2023-03-23T06:50:05;97628.69;;;12.08;73.15
64078;BME280;51039;49.696;10.808;2023-03-23T06:52:30;97645.19;;;11.98;73.72
64078;BME280;51039;49.696;10.808;2023-03-23T06:54:56;97644.16;;;11.99;74.38
64078;BME280;51039;49.696;10.808;2023-03-23T06:57:21;97648.19;;;12.02;74.46
64078;BME280;51039;49.696;10.808;2023-03-23T06:59:47;97649.91;;;11.96;74.84
64078;BME280;51039;49.696;10.808;2023-03-23T07:02:13;97644.03;;;11.94;75.50
64078;BME280;51039;49.696;10.808;2023-03-23T07:04:39;97633.84;;;11.91;76.79
64078;BME280;51039;49.696;10.808;2023-03-23T07:07:05;97636.25;;;11.81;78.83
64078;BME280;51039;49.696;10.808;2023-03-23T07:09:33;97638.31;;;11.78;79.78
64078;BME280;51039;49.696;10.808;2023-03-23T07:11:58;97642.34;;;11.81;79.91
64078;BME280;51039;49.696;10.808;2023-03-23T07:14:23;97652.13;;;11.57;82.27
64078;BME280;51039;49.696;10.808;2023-03-23T07:16:48;97649.72;;;11.67;81.27
64078;BME280;51039;49.696;10.808;2023-03-23T07:19:14;97655.44;;;11.52;82.13
64078;BME280;51039;49.696;10.808;2023-03-23T07:21:39;97656.16;;;11.59;82.75
64078;BME280;51039;49.696;10.808;2023-03-23T07:24:05;97661.34;;;11.66;83.33
64078;BME280;51039;49.696;10.808;2023-03-23T07:26:31;97647.06;;;11.67;83.97
64078;BME280;51039;49.696;10.808;2023-03-23T07:28:56;97656.31;;;11.76;83.84
64078;BME280;51039;49.696;10.808;2023-03-23T07:31:22;97653.50;;;12.13;83.48
64078;BME280;51039;49.696;10.808;2023-03-23T07:33:47;97652.22;;;12.28;83.42
64078;BME280;51039;49.696;10.808;2023-03-23T07:36:13;97655.81;;;12.33;81.88
64078;BME280;51039;49.696;10.808;2023-03-23T07:38:38;97660.19;;;12.28;82.80
64078;BME280;51039;49.696;10.808;2023-03-23T07:41:04;97662.03;;;12.27;83.21
64078;BME280;51039;49.696;10.808;2023-03-23T07:43:30;97665.28;;;12.06;84.81
64078;BME280;51039;49.696;10.808;2023-03-23T07:45:55;97667.00;;;12.00;84.90
64078;BME280;51039;49.696;10.808;2023-03-23T07:48:21;97677.75;;;12.17;84.96
64078;BME280;51039;49.696;10.808;2023-03-23T07:50:46;97668.41;;;12.26;84.05
64078;BME280;51039;49.696;10.808;2023-03-23T07:53:12;97679.84;;;12.27;84.14
64078;BME280;51039;49.696;10.808;2023-03-23T07:55:37;97677.88;;;12.34;84.10
64078;BME280;51039;49.696;10.808;2023-03-23T07:58:02;97681.13;;;12.36;84.20
64078;BME280;51039;49.696;10.808;2023-03-23T08:00:28;97690.22;;;12.16;85.75
64078;BME280;51039;49.696;10.808;2023-03-23T08:02:55;97691.94;;;12.11;85.16
64078;BME280;51039;49.696;10.808;2023-03-23T08:05:22;97705.47;;;12.21;85.56
64078;BME280;51039;49.696;10.808;2023-03-23T08:07:50;97709.03;;;12.27;84.73
64078;BME280;51039;49.696;10.808;2023-03-23T08:10:18;97714.13;;;12.16;86.17
64078;BME280;51039;49.696;10.808;2023-03-23T08:12:44;97711.13;;;12.25;86.08
64078;BME280;51039;49.696;10.808;2023-03-23T08:15:11;97712.72;;;12.26;85.78
64078;BME280;51039;49.696;10.808;2023-03-23T08:17:39;97708.59;;;12.30;85.46
64078;BME280;51039;49.696;10.808;2023-03-23T08:20:06;97705.38;;;12.51;84.61
64078;BME280;51039;49.696;10.808;2023-03-23T08:22:36;97704.09;;;12.54;84.68
64078;BME280;51039;49.696;10.808;2023-03-23T08:25:03;97707.22;;;12.63;82.77
64078;BME280;51039;49.696;10.808;2023-03-23T08:27:30;97710.66;;;12.63;83.09
64078;BME280;51039;49.696;10.808;2023-03-23T08:29:55;97705.47;;;12.80;82.69
64078;BME280;51039;49.696;10.808;2023-03-23T08:32:21;97714.00;;;12.94;82.41
64078;BME280;51039;49.696;10.808;2023-03-23T08:34:46;97717.66;;;13.05;82.31
64078;BME280;51039;49.696;10.808;2023-03-23T08:37:12;97718.13;;;13.13;81.94
64078;BME280;51039;49.696;10.808;2023-03-23T08:39:37;97717.19;;;13.08;81.26
64078;BME280;51039;49.696;10.808;2023-03-23T08:42:03;97719.75;;;13.14;81.53
64078;BME280;51039;49.696;10.808;2023-03-23T08:44:28;97713.34;;;13.27;79.86
64078;BME280;51039;49.696;10.808;2023-03-23T08:46:54;97713.25;;;13.34;79.33
64078;BME280;51039;49.696;10.808;2023-03-23T08:49:22;97721.13;;;13.58;79.59
64078;BME280;51039;49.696;10.808;2023-03-23T08:51:48;97725.31;;;13.53;79.14
64078;BME280;51039;49.696;10.808;2023-03-23T08:54:13;97731.78;;;13.58;79.19
64078;BME280;51039;49.696;10.808;2023-03-23T08:56:39;97732.28;;;13.43;80.54
64078;BME280;51039;49.696;10.808;2023-03-23T08:59:04;97727.25;;;13.58;80.12
64078;BME280;51039;49.696;10.808;2023-03-23T09:01:30;97733.06;;;13.55;80.42
64078;BME280;51039;49.696;10.808;2023-03-23T09:03:55;97727.47;;;13.68;79.39
64078;BME280;51039;49.696;10.808;2023-03-23T09:06:21;97737.22;;;13.63;80.29
64078;BME280;51039;49.696;10.808;2023-03-23T09:08:47;97726.69;;;13.56;80.09
64078;BME280;51039;49.696;10.808;2023-03-23T09:11:12;97723.56;;;13.88;79.33
64078;BME280;51039;49.696;10.808;2023-03-23T09:13:38;97733.00;;;14.12;77.58
64078;BME280;51039;49.696;10.808;2023-03-23T09:16:05;97727.13;;;14.27;76.09
64078;BME280;51039;49.696;10.808;2023-03-23T09:18:31;97731.66;;;14.27;75.62
64078;BME280;51039;49.696;10.808;2023-03-23T09:20:57;97735.66;;;14.12;76.08
64078;BME280;51039;49.696;10.808;2023-03-23T09:23:23;97733.44;;;14.38;74.74
64078;BME280;51039;49.696;10.808;2023-03-23T09:25:50;97743.38;;;14.60;73.62
64078;BME280;51039;49.696;10.808;2023-03-23T09:28:16;97747.56;;;14.72;73.35
64078;BME280;51039;49.696;10.808;2023-03-23T09:30:41;97746.28;;;14.75;72.08
64078;BME280;51039;49.696;10.808;2023-03-23T09:33:09;97739.34;;;15.13;71.31
64078;BME280;51039;49.696;10.808;2023-03-23T09:35:35;97733.03;;;15.02;70.66
64078;BME280;51039;49.696;10.808;2023-03-23T09:38:03;97740.50;;;14.83;70.99
64078;BME280;51039;49.696;10.808;2023-03-23T09:40:32;97740.34;;;14.90;70.89
64078;BME280;51039;49.696;10.808;2023-03-23T09:50:52;97756.94;;;14.58;72.96
64078;BME280;51039;49.696;10.808;2023-03-23T09:53:28;97755.13;;;14.47;73.71
64078;BME280;51039;49.696;10.808;2023-03-23T09:56:01;97753.69;;;14.39;73.71
64078;BME280;51039;49.696;10.808;2023-03-23T09:58:31;97758.59;;;14.13;73.98
64078;BME280;51039;49.696;10.808;2023-03-23T10:01:20;97763.25;;;14.06;75.45
64078;BME280;51039;49.696;10.808;2023-03-23T10:03:52;97767.94;;;14.16;74.10
64078;BME280;51039;49.696;10.808;2023-03-23T10:06:25;97770.22;;;14.07;74.98
64078;BME280;51039;49.696;10.808;2023-03-23T10:08:51;97771.81;;;14.08;75.45
64078;BME280;51039;49.696;10.808;2023-03-23T10:22:12;97774.81;;;15.14;69.22
64078;BME280;51039;49.696;10.808;2023-03-23T10:24:50;97790.59;;;14.98;69.28
64078;BME280;51039;49.696;10.808;2023-03-23T10:27:38;97796.59;;;14.88;68.89
64078;BME280;51039;49.696;10.808;2023-03-23T10:32:53;97789.47;;;14.94;68.76
64078;BME280;51039;49.696;10.808;2023-03-23T10:35:34;97799.81;;;14.57;70.90
64078;BME280;51039;49.696;10.808;2023-03-23T10:38:13;97806.81;;;14.29;72.79
64078;BME280;51039;49.696;10.808;2023-03-23T10:40:48;97805.00;;;14.18;72.19
64078;BME280;51039;49.696;10.808;2023-03-23T10:43:15;97815.22;;;13.92;73.94
64078;BME280;51039;49.696;10.808;2023-03-23T10:45:41;97818.81;;;14.14;74.93
64078;BME280;51039;49.696;10.808;2023-03-23T10:50:39;97808.91;;;14.27;73.30
64078;BME280;51039;49.696;10.808;2023-03-23T10:53:51;97799.06;;;14.27;73.17
64078;BME280;51039;49.696;10.808;2023-03-23T10:55:59;97791.84;;;14.28;73.13
64078;BME280;51039;49.696;10.808;2023-03-23T10:58:27;97801.78;;;14.16;74.86
64078;BME280;51039;49.696;10.808;2023-03-23T11:00:58;97791.63;;;14.29;73.03
64078;BME280;51039;49.696;10.808;2023-03-23T11:06:18;97810.16;;;14.07;73.92
64078;BME280;51039;49.696;10.808;2023-03-23T11:08:58;97806.72;;;14.24;73.52
64078;BME280;51039;49.696;10.808;2023-03-23T11:11:29;97809.31;;;14.36;72.97
64078;BME280;51039;49.696;10.808;2023-03-23T11:13:57;97806.00;;;14.28;74.45
64078;BME280;51039;49.696;10.808;2023-03-23T11:16:31;97809.63;;;14.22;74.93
64078;BME280;51039;49.696;10.808;2023-03-23T11:18:59;97812.81;;;14.07;76.14
64078;BME280;51039;49.696;10.808;2023-03-23T11:21:36;97816.16;;;13.86;76.11
64078;BME280;51039;49.696;10.808;2023-03-23T11:24:03;97823.84;;;13.70;76.08
64078;BME280;51039;49.696;10.808;2023-03-23T11:26:34;97826.19;;;13.55;75.71
64078;BME280;51039;49.696;10.808;2023-03-23T11:29:10;97835.31;;;13.59;76.21
64078;BME280;51039;49.696;10.808;2023-03-23T11:31:43;97822.41;;;13.80;75.51
64078;BME280;51039;49.696;10.808;2023-03-23T11:36:40;97808.59;;;14.40;74.20
64078;BME280;51039;49.696;10.808;2023-03-23T11:39:31;97825.72;;;14.44;73.71
64078;BME280;51039;49.696;10.808;2023-03-23T11:41:57;97821.81;;;14.35;74.56
64078;BME280;51039;49.696;10.808;2023-03-23T11:44:31;97816.38;;;14.42;74.50
64078;BME280;51039;49.696;10.808;2023-03-23T11:47:09;97810.25;;;14.58;73.44
64078;BME280;51039;49.696;10.808;2023-03-23T11:49:52;97811.38;;;14.45;73.87
64078;BME280;51039;49.696;10.808;2023-03-23T11:55:13;97809.47;;;14.75;73.55
64078;BME280;51039;49.696;10.808;2023-03-23T11:57:42;97807.81;;;14.90;72.97
64078;BME280;51039;49.696;10.808;2023-03-23T12:00:11;97808.06;;;14.72;73.91
64078;BME280;51039;49.696;10.808;2023-03-23T12:02:50;97807.13;;;14.78;74.24
64078;BME280;51039;49.696;10.808;2023-03-23T12:05:29;97801.59;;;14.68;74.77
64078;BME280;51039;49.696;10.808;2023-03-23T12:21:44;97808.94;;;14.95;73.39
64078;BME280;51039;49.696;10.808;2023-03-23T12:35:33;97795.09;;;15.59;71.37
64078;BME280;51039;49.696;10.808;2023-03-23T12:38:25;97793.00;;;15.39;72.51
64078;BME280;51039;49.696;10.808;2023-03-23T12:41:05;97794.34;;;15.19;71.58
64078;BME280;51039;49.696;10.808;2023-03-23T12:43:57;97798.13;;;15.01;72.67
64078;BME280;51039;49.696;10.808;2023-03-23T12:54:57;97781.81;;;15.64;71.30
64078;BME280;51039;49.696;10.808;2023-03-23T13:03:10;97780.41;;;15.56;69.60
64078;BME280;51039;49.696;10.808;2023-03-23T13:05:50;97787.75;;;15.05;71.50
64078;BME280;51039;49.696;10.808;2023-03-23T13:08:22;97791.25;;;14.88;73.17
64078;BME280;51039;49.696;10.808;2023-03-23T13:10:54;97785.63;;;14.68;72.23
64078;BME280;51039;49.696;10.808;2023-03-23T13:13:39;97786.13;;;14.65;73.07
64078;BME280;51039;49.696;10.808;2023-03-23T13:21:44;97782.28;;;13.98;74.65
64078;BME280;51039;49.696;10.808;2023-03-23T13:24:14;97788.75;;;14.02;74.53
64078;BME280;51039;49.696;10.808;2023-03-23T13:26:43;97774.09;;;14.17;74.14
64078;BME280;51039;49.696;10.808;2023-03-23T13:29:12;97773.78;;;14.47;73.19
64078;BME280;51039;49.696;10.808;2023-03-23T13:31:40;97764.34;;;14.56;72.30
64078;BME280;51039;49.696;10.808;2023-03-23T13:34:20;97768.34;;;14.70;71.65
64078;BME280;51039;49.696;10.808;2023-03-23T13:36:58;97751.34;;;14.94;71.16
64078;BME280;51039;49.696;10.808;2023-03-23T13:39:31;97739.59;;;14.95;70.54
64078;BME280;51039;49.696;10.808;2023-03-23T13:50:02;97740.13;;;15.36;68.94
64078;BME280;51039;49.696;10.808;2023-03-23T13:57:53;97735.28;;;15.10;69.55
64078;BME280;51039;49.696;10.808;2023-03-23T14:03:38;97726.03;;;14.96;69.73
64078;BME280;51039;49.696;10.808;2023-03-23T14:06:08;97722.38;;;15.02;69.34
64078;BME280;51039;49.696;10.808;2023-03-23T14:08:39;97725.66;;;15.31;69.23
64078;BME280;51039;49.696;10.808;2023-03-23T14:11:19;97721.94;;;15.32;68.34
64078;BME280;51039;49.696;10.808;2023-03-23T14:14:04;97724.81;;;15.48;67.55
64078;BME280;51039;49.696;10.808;2023-03-23T14:16:35;97720.31;;;15.31;68.22
64078;BME280;51039;49.696;10.808;2023-03-23T14:21:41;97716.44;;;15.66;67.78
64078;BME280;51039;49.696;10.808;2023-03-23T14:24:17;97710.00;;;15.62;67.73
64078;BME280;51039;49.696;10.808;2023-03-23T14:26:47;97709.88;;;15.74;66.61
64078;BME280;51039;49.696;10.808;2023-03-23T14:29:17;97716.59;;;15.77;67.32
64078;BME280;51039;49.696;10.808;2023-03-23T14:31:42;97717.22;;;15.89;67.00
64078;BME280;51039;49.696;10.808;2023-03-23T14:34:16;97727.13;;;15.66;66.70
64078;BME280;51039;49.696;10.808;2023-03-23T14:36:44;97718.22;;;15.56;66.85
64078;BME280;51039;49.696;10.808;2023-03-23T14:42:07;97726.19;;;15.28;67.29
64078;BME280;51039;49.696;10.808;2023-03-23T14:44:41;97734.22;;;15.11;67.69
64078;BME280;51039;49.696;10.808;2023-03-23T14:47:23;97745.03;;;15.00;68.67
64078;BME280;51039;49.696;10.808;2023-03-23T14:49:52;97740.69;;;14.94;68.97
64078;BME280;51039;49.696;10.808;2023-03-23T14:52:23;97733.72;;;14.92;69.11
64078;BME280;51039;49.696;10.808;2023-03-23T14:54:50;97722.78;;;15.11;68.17
64078;BME280;51039;49.696;10.808;2023-03-23T14:57:20;97728.00;;;15.28;67.47